TUA180 UTAV-UTAA
Flight info
| Callsign | TUA180 |
|---|---|
| Flight time | 0h 50m |
| Altitude | 30000 |
| Route | OBI13D DUTAR A117 URABA URA29A |
| Aircraft | B738/M-SDE2E3FGHIRWXY/LB1 |
Departure
| Time | 2026-04-13 18:49 |
|---|---|
| Airport | Türkmenabat International Airport (UTAV) |
Arrival
| Time | 2026-04-13 19:40 |
|---|---|
| Airport | Ashgabat International Airport (UTAA) |
| Time | Latitude | Longitude | Altitude | Speed | Heading |
|---|---|---|---|---|---|
| 2026-04-13 18:34 | 38.93614 | 63.56642 | 656 ft | 0 kts | 40° |
| 2026-04-13 18:41 | 38.93598 | 63.56625 | 657 ft | 4 kts | 35° |
| 2026-04-13 18:41 | 38.93575 | 63.56607 | 655 ft | 4 kts | 23° |
| 2026-04-13 18:41 | 38.93550 | 63.56598 | 654 ft | 3 kts | 5° |
| 2026-04-13 18:41 | 38.93547 | 63.56597 | 654 ft | 2 kts | 4° |
| 2026-04-13 18:43 | 38.93550 | 63.56595 | 654 ft | 1 kts | 342° |
| 2026-04-13 18:43 | 38.93559 | 63.56572 | 657 ft | 5 kts | 279° |
| 2026-04-13 18:44 | 38.93572 | 63.56501 | 653 ft | 10 kts | 301° |
| 2026-04-13 18:44 | 38.93618 | 63.56426 | 654 ft | 11 kts | 312° |
| 2026-04-13 18:44 | 38.93652 | 63.56344 | 655 ft | 12 kts | 253° |
| 2026-04-13 18:44 | 38.93593 | 63.56272 | 657 ft | 12 kts | 220° |
| 2026-04-13 18:45 | 38.93525 | 63.56198 | 657 ft | 14 kts | 220° |
| 2026-04-13 18:45 | 38.93489 | 63.56099 | 658 ft | 14 kts | 291° |
| 2026-04-13 18:45 | 38.93556 | 63.55994 | 657 ft | 16 kts | 306° |
| 2026-04-13 18:45 | 38.93629 | 63.55889 | 658 ft | 15 kts | 311° |
| 2026-04-13 18:46 | 38.93698 | 63.55787 | 659 ft | 15 kts | 311° |
| 2026-04-13 18:46 | 38.93765 | 63.55689 | 660 ft | 14 kts | 311° |
| 2026-04-13 18:46 | 38.93827 | 63.55593 | 657 ft | 14 kts | 309° |
| 2026-04-13 18:46 | 38.93901 | 63.55477 | 657 ft | 19 kts | 309° |
| 2026-04-13 18:47 | 38.93991 | 63.55344 | 660 ft | 20 kts | 311° |
| 2026-04-13 18:47 | 38.94079 | 63.55214 | 660 ft | 19 kts | 311° |
| 2026-04-13 18:47 | 38.94163 | 63.55087 | 662 ft | 18 kts | 309° |
| 2026-04-13 18:47 | 38.94244 | 63.54965 | 659 ft | 18 kts | 311° |
| 2026-04-13 18:48 | 38.94255 | 63.54828 | 657 ft | 17 kts | 229° |
| 2026-04-13 18:48 | 38.94152 | 63.54779 | 660 ft | 17 kts | 157° |
| 2026-04-13 18:48 | 38.94052 | 63.54918 | 659 ft | 44 kts | 129° |
| 2026-04-13 18:48 | 38.93662 | 63.55506 | 652 ft | 126 kts | 130° |
| 2026-04-13 18:49 | 38.92959 | 63.56582 | 778 ft | 181 kts | 129° |
| 2026-04-13 18:49 | 38.92126 | 63.57865 | 1660 ft | 186 kts | 126° |
| 2026-04-13 18:49 | 38.91223 | 63.59086 | 2578 ft | 201 kts | 143° |
| 2026-04-13 18:49 | 38.89855 | 63.59809 | 2885 ft | 228 kts | 168° |
| 2026-04-13 18:50 | 38.88225 | 63.59691 | 3210 ft | 248 kts | 195° |
| 2026-04-13 18:50 | 38.86682 | 63.58624 | 3732 ft | 262 kts | 220° |
| 2026-04-13 18:50 | 38.85639 | 63.56640 | 4134 ft | 279 kts | 252° |
| 2026-04-13 18:50 | 38.85369 | 63.54173 | 4979 ft | 280 kts | 267° |
| 2026-04-13 18:51 | 38.85292 | 63.51674 | 5875 ft | 281 kts | 268° |
| 2026-04-13 18:51 | 38.85224 | 63.49154 | 6713 ft | 284 kts | 267° |
| 2026-04-13 18:51 | 38.85138 | 63.46594 | 7532 ft | 289 kts | 266° |
| 2026-04-13 18:51 | 38.85036 | 63.44012 | 8351 ft | 291 kts | 265° |
| 2026-04-13 18:52 | 38.84918 | 63.41394 | 9128 ft | 295 kts | 265° |
| 2026-04-13 18:52 | 38.84790 | 63.38752 | 9925 ft | 298 kts | 265° |
| 2026-04-13 18:52 | 38.84652 | 63.36069 | 10531 ft | 309 kts | 265° |
| 2026-04-13 18:52 | 38.84497 | 63.33205 | 10736 ft | 332 kts | 265° |
| 2026-04-13 18:53 | 38.84330 | 63.30191 | 11248 ft | 343 kts | 265° |
| 2026-04-13 18:53 | 38.84158 | 63.27126 | 11998 ft | 345 kts | 265° |
| 2026-04-13 18:53 | 38.83985 | 63.24108 | 12868 ft | 343 kts | 265° |
| 2026-04-13 18:53 | 38.83807 | 63.21041 | 13608 ft | 346 kts | 265° |
| 2026-04-13 18:54 | 38.83627 | 63.17935 | 14280 ft | 350 kts | 265° |
| 2026-04-13 18:54 | 38.83442 | 63.14813 | 14972 ft | 353 kts | 265° |
| 2026-04-13 18:54 | 38.83257 | 63.11660 | 15661 ft | 355 kts | 265° |
| 2026-04-13 18:54 | 38.83071 | 63.08490 | 16334 ft | 358 kts | 265° |
| 2026-04-13 18:55 | 38.82882 | 63.05301 | 16980 ft | 361 kts | 264° |
| 2026-04-13 18:55 | 38.82690 | 63.02079 | 17614 ft | 363 kts | 264° |
| 2026-04-13 18:55 | 38.82501 | 62.98923 | 18215 ft | 366 kts | 264° |
| 2026-04-13 18:55 | 38.82304 | 62.95652 | 18804 ft | 369 kts | 264° |
| 2026-04-13 18:56 | 38.82106 | 62.92365 | 19439 ft | 370 kts | 264° |
| 2026-04-13 18:56 | 38.81907 | 62.89087 | 20191 ft | 367 kts | 264° |
| 2026-04-13 18:56 | 38.81708 | 62.85839 | 20952 ft | 364 kts | 264° |
| 2026-04-13 18:56 | 38.81512 | 62.82604 | 21619 ft | 364 kts | 264° |
| 2026-04-13 18:57 | 38.81313 | 62.79369 | 22218 ft | 364 kts | 264° |
| 2026-04-13 18:57 | 38.81112 | 62.76137 | 22850 ft | 363 kts | 264° |
| 2026-04-13 18:57 | 38.80911 | 62.72917 | 23515 ft | 361 kts | 264° |
| 2026-04-13 18:57 | 38.80711 | 62.69733 | 23827 ft | 364 kts | 264° |
| 2026-04-13 18:58 | 38.80509 | 62.66510 | 23850 ft | 362 kts | 264° |
| 2026-04-13 18:58 | 38.80306 | 62.63258 | 23858 ft | 361 kts | 264° |
| 2026-04-13 18:58 | 38.80104 | 62.60081 | 23864 ft | 361 kts | 264° |
| 2026-04-13 18:58 | 38.79900 | 62.56881 | 23870 ft | 361 kts | 264° |
| 2026-04-13 18:59 | 38.79626 | 62.53677 | 23863 ft | 361 kts | 261° |
| 2026-04-13 18:59 | 38.79263 | 62.50490 | 23861 ft | 361 kts | 260° |
| 2026-04-13 18:59 | 38.78873 | 62.47312 | 23855 ft | 361 kts | 260° |
| 2026-04-13 18:59 | 38.78479 | 62.44132 | 23855 ft | 361 kts | 260° |
| 2026-04-13 19:00 | 38.78213 | 62.41986 | 23856 ft | 361 kts | 260° |
| 2026-04-13 19:00 | 38.77698 | 62.37769 | 23853 ft | 361 kts | 260° |
| 2026-04-13 19:00 | 38.77315 | 62.34585 | 23853 ft | 361 kts | 260° |
| 2026-04-13 19:00 | 38.76933 | 62.31401 | 23854 ft | 361 kts | 261° |
| 2026-04-13 19:01 | 38.76554 | 62.28223 | 23855 ft | 361 kts | 261° |
| 2026-04-13 19:01 | 38.76175 | 62.25049 | 23853 ft | 360 kts | 261° |
| 2026-04-13 19:01 | 38.75796 | 62.21882 | 23853 ft | 360 kts | 261° |
| 2026-04-13 19:01 | 38.75416 | 62.18713 | 23853 ft | 360 kts | 260° |
| 2026-04-13 19:02 | 38.75036 | 62.15548 | 23853 ft | 359 kts | 261° |
| 2026-04-13 19:02 | 38.74656 | 62.12382 | 23852 ft | 359 kts | 261° |
| 2026-04-13 19:02 | 38.74275 | 62.09221 | 23856 ft | 359 kts | 261° |
| 2026-04-13 19:02 | 38.73892 | 62.06056 | 23861 ft | 360 kts | 261° |
| 2026-04-13 19:03 | 38.73507 | 62.02877 | 23915 ft | 361 kts | 260° |
| 2026-04-13 19:03 | 38.73131 | 61.99788 | 23950 ft | 360 kts | 261° |
| 2026-04-13 19:03 | 38.72745 | 61.96620 | 23945 ft | 359 kts | 260° |
| 2026-04-13 19:03 | 38.72361 | 61.93464 | 23946 ft | 359 kts | 260° |
| 2026-04-13 19:04 | 38.71973 | 61.90313 | 23954 ft | 358 kts | 260° |
| 2026-04-13 19:04 | 38.71587 | 61.87164 | 23946 ft | 357 kts | 260° |
| 2026-04-13 19:04 | 38.71207 | 61.84064 | 23951 ft | 357 kts | 260° |
| 2026-04-13 19:04 | 38.70821 | 61.80921 | 23944 ft | 358 kts | 260° |
| 2026-04-13 19:05 | 38.70433 | 61.77775 | 23948 ft | 358 kts | 260° |
| 2026-04-13 19:05 | 38.70044 | 61.74627 | 23948 ft | 358 kts | 260° |
| 2026-04-13 19:05 | 38.69653 | 61.71475 | 23949 ft | 358 kts | 260° |
| 2026-04-13 19:05 | 38.69260 | 61.68323 | 23945 ft | 359 kts | 260° |
| 2026-04-13 19:06 | 38.68866 | 61.65162 | 23950 ft | 359 kts | 260° |
| 2026-04-13 19:06 | 38.68472 | 61.62005 | 23949 ft | 359 kts | 260° |
| 2026-04-13 19:06 | 38.68077 | 61.58847 | 23938 ft | 360 kts | 260° |
| 2026-04-13 19:06 | 38.67680 | 61.55684 | 23941 ft | 360 kts | 260° |
| 2026-04-13 19:07 | 38.67284 | 61.52524 | 23947 ft | 360 kts | 260° |
| 2026-04-13 19:07 | 38.66887 | 61.49364 | 23947 ft | 360 kts | 260° |
| 2026-04-13 19:07 | 38.66489 | 61.46203 | 23947 ft | 360 kts | 260° |
| 2026-04-13 19:07 | 38.66090 | 61.43045 | 23946 ft | 360 kts | 260° |
| 2026-04-13 19:08 | 38.65689 | 61.39886 | 23946 ft | 359 kts | 260° |
| 2026-04-13 19:08 | 38.65247 | 61.36775 | 23943 ft | 359 kts | 257° |
| 2026-04-13 19:08 | 38.64668 | 61.33673 | 23945 ft | 358 kts | 255° |
| 2026-04-13 19:08 | 38.64036 | 61.30587 | 23948 ft | 358 kts | 255° |
| 2026-04-13 19:09 | 38.63394 | 61.27513 | 23938 ft | 358 kts | 254° |
| 2026-04-13 19:09 | 38.62753 | 61.24439 | 23944 ft | 357 kts | 255° |
| 2026-04-13 19:09 | 38.62120 | 61.21373 | 23947 ft | 357 kts | 255° |
| 2026-04-13 19:09 | 38.61492 | 61.18306 | 23945 ft | 357 kts | 255° |
| 2026-04-13 19:10 | 38.60866 | 61.15236 | 23941 ft | 357 kts | 255° |
| 2026-04-13 19:10 | 38.60242 | 61.12164 | 23949 ft | 357 kts | 255° |
| 2026-04-13 19:10 | 38.59619 | 61.09089 | 23948 ft | 357 kts | 255° |
| 2026-04-13 19:10 | 38.58998 | 61.06021 | 23949 ft | 357 kts | 255° |
| 2026-04-13 19:11 | 38.58375 | 61.02942 | 23948 ft | 357 kts | 255° |
| 2026-04-13 19:11 | 38.57758 | 60.99902 | 23946 ft | 357 kts | 255° |
| 2026-04-13 19:11 | 38.57151 | 60.96904 | 23945 ft | 357 kts | 255° |
| 2026-04-13 19:11 | 38.56528 | 60.93834 | 23947 ft | 357 kts | 255° |
| 2026-04-13 19:12 | 38.55906 | 60.90768 | 23947 ft | 356 kts | 255° |
| 2026-04-13 19:12 | 38.55282 | 60.87703 | 23944 ft | 356 kts | 255° |
| 2026-04-13 19:12 | 38.54657 | 60.84645 | 23947 ft | 356 kts | 255° |
| 2026-04-13 19:12 | 38.54031 | 60.81588 | 23939 ft | 356 kts | 255° |
| 2026-04-13 19:13 | 38.53405 | 60.78531 | 23940 ft | 356 kts | 255° |
| 2026-04-13 19:13 | 38.52779 | 60.75478 | 23939 ft | 356 kts | 254° |
| 2026-04-13 19:13 | 38.52153 | 60.72425 | 23945 ft | 355 kts | 254° |
| 2026-04-13 19:13 | 38.51527 | 60.69383 | 23945 ft | 355 kts | 254° |
| 2026-04-13 19:14 | 38.50899 | 60.66332 | 23942 ft | 355 kts | 254° |
| 2026-04-13 19:14 | 38.50271 | 60.63284 | 23946 ft | 355 kts | 254° |
| 2026-04-13 19:14 | 38.49644 | 60.60242 | 23944 ft | 354 kts | 254° |
| 2026-04-13 19:14 | 38.49016 | 60.57202 | 23945 ft | 354 kts | 254° |
| 2026-04-13 19:15 | 38.48387 | 60.54162 | 23942 ft | 354 kts | 254° |
| 2026-04-13 19:15 | 38.47758 | 60.51127 | 23950 ft | 353 kts | 254° |
| 2026-04-13 19:15 | 38.47127 | 60.48090 | 23939 ft | 353 kts | 254° |
| 2026-04-13 19:15 | 38.46498 | 60.45061 | 23947 ft | 353 kts | 254° |
| 2026-04-13 19:16 | 38.45865 | 60.42023 | 23948 ft | 353 kts | 254° |
| 2026-04-13 19:16 | 38.45235 | 60.39000 | 23944 ft | 353 kts | 254° |
| 2026-04-13 19:16 | 38.44603 | 60.35974 | 23946 ft | 353 kts | 254° |
| 2026-04-13 19:16 | 38.43970 | 60.32948 | 23943 ft | 353 kts | 254° |
| 2026-04-13 19:17 | 38.43338 | 60.29928 | 23946 ft | 350 kts | 254° |
| 2026-04-13 19:17 | 38.42719 | 60.26974 | 23930 ft | 338 kts | 254° |
| 2026-04-13 19:17 | 38.42121 | 60.24123 | 23816 ft | 330 kts | 254° |
| 2026-04-13 19:17 | 38.41539 | 60.21352 | 23621 ft | 325 kts | 254° |
| 2026-04-13 19:18 | 38.40955 | 60.18577 | 23284 ft | 323 kts | 254° |
| 2026-04-13 19:18 | 38.40375 | 60.15828 | 22984 ft | 320 kts | 253° |
| 2026-04-13 19:18 | 38.39797 | 60.13096 | 22641 ft | 318 kts | 253° |
| 2026-04-13 19:18 | 38.39224 | 60.10383 | 22304 ft | 316 kts | 253° |
| 2026-04-13 19:19 | 38.38653 | 60.07687 | 21966 ft | 314 kts | 253° |
| 2026-04-13 19:19 | 38.38087 | 60.05007 | 21633 ft | 313 kts | 253° |
| 2026-04-13 19:19 | 38.37523 | 60.02340 | 21298 ft | 310 kts | 253° |
| 2026-04-13 19:19 | 38.36975 | 59.99763 | 20971 ft | 309 kts | 253° |
| 2026-04-13 19:20 | 38.36415 | 59.97128 | 20634 ft | 307 kts | 253° |
| 2026-04-13 19:20 | 38.35857 | 59.94511 | 20313 ft | 305 kts | 253° |
| 2026-04-13 19:20 | 38.35303 | 59.91906 | 19985 ft | 304 kts | 253° |
| 2026-04-13 19:20 | 38.34750 | 59.89314 | 19658 ft | 302 kts | 253° |
| 2026-04-13 19:21 | 38.34200 | 59.86738 | 19334 ft | 301 kts | 252° |
| 2026-04-13 19:21 | 38.33652 | 59.84178 | 19014 ft | 299 kts | 252° |
| 2026-04-13 19:21 | 38.33106 | 59.81632 | 18688 ft | 298 kts | 252° |
| 2026-04-13 19:21 | 38.32562 | 59.79091 | 18375 ft | 297 kts | 252° |
| 2026-04-13 19:22 | 38.32020 | 59.76563 | 18055 ft | 296 kts | 252° |
| 2026-04-13 19:22 | 38.31479 | 59.74043 | 17739 ft | 294 kts | 252° |
| 2026-04-13 19:22 | 38.30940 | 59.71542 | 17433 ft | 292 kts | 252° |
| 2026-04-13 19:22 | 38.30409 | 59.69081 | 17119 ft | 291 kts | 252° |
| 2026-04-13 19:23 | 38.29876 | 59.66605 | 16801 ft | 289 kts | 252° |
| 2026-04-13 19:23 | 38.29342 | 59.64136 | 16496 ft | 288 kts | 252° |
| 2026-04-13 19:23 | 38.28812 | 59.61679 | 16173 ft | 287 kts | 252° |
| 2026-04-13 19:23 | 38.28285 | 59.59238 | 15878 ft | 285 kts | 252° |
| 2026-04-13 19:24 | 38.27758 | 59.56804 | 15572 ft | 284 kts | 252° |
| 2026-04-13 19:24 | 38.27235 | 59.54390 | 15268 ft | 282 kts | 252° |
| 2026-04-13 19:24 | 38.26714 | 59.51985 | 14965 ft | 281 kts | 252° |
| 2026-04-13 19:24 | 38.26194 | 59.49592 | 14667 ft | 280 kts | 252° |
| 2026-04-13 19:25 | 38.25675 | 59.47210 | 14366 ft | 279 kts | 252° |
| 2026-04-13 19:25 | 38.25159 | 59.44841 | 14066 ft | 278 kts | 252° |
| 2026-04-13 19:25 | 38.24644 | 59.42478 | 13769 ft | 276 kts | 252° |
| 2026-04-13 19:25 | 38.24133 | 59.40129 | 13476 ft | 275 kts | 252° |
| 2026-04-13 19:26 | 38.23623 | 59.37793 | 13182 ft | 274 kts | 252° |
| 2026-04-13 19:26 | 38.23289 | 59.36254 | 12993 ft | 271 kts | 252° |
| 2026-04-13 19:26 | 38.22609 | 59.33186 | 12606 ft | 272 kts | 252° |
| 2026-04-13 19:26 | 38.22000 | 59.30911 | 12193 ft | 274 kts | 244° |
| 2026-04-13 19:27 | 38.21162 | 59.28733 | 11858 ft | 274 kts | 241° |
| 2026-04-13 19:27 | 38.20277 | 59.26593 | 11534 ft | 273 kts | 240° |
| 2026-04-13 19:27 | 38.19388 | 59.24457 | 11229 ft | 273 kts | 240° |
| 2026-04-13 19:27 | 38.18793 | 59.23017 | 11024 ft | 272 kts | 240° |
| 2026-04-13 19:28 | 38.17917 | 59.20880 | 10724 ft | 271 kts | 240° |
| 2026-04-13 19:28 | 38.17053 | 59.18758 | 10431 ft | 270 kts | 240° |
| 2026-04-13 19:28 | 38.16203 | 59.16661 | 10139 ft | 269 kts | 240° |
| 2026-04-13 19:28 | 38.15359 | 59.14574 | 10033 ft | 262 kts | 240° |
| 2026-04-13 19:29 | 38.14528 | 59.12514 | 9801 ft | 264 kts | 241° |
| 2026-04-13 19:29 | 38.13677 | 59.10407 | 9544 ft | 271 kts | 241° |
| 2026-04-13 19:29 | 38.12804 | 59.08247 | 9252 ft | 279 kts | 241° |
| 2026-04-13 19:29 | 38.11913 | 59.06037 | 8964 ft | 281 kts | 240° |
| 2026-04-13 19:30 | 38.11023 | 59.03828 | 8650 ft | 281 kts | 240° |
| 2026-04-13 19:30 | 38.10134 | 59.01624 | 8356 ft | 280 kts | 240° |
| 2026-04-13 19:30 | 38.09280 | 58.99477 | 8073 ft | 280 kts | 241° |
| 2026-04-13 19:30 | 38.08406 | 58.97266 | 7757 ft | 280 kts | 242° |
| 2026-04-13 19:31 | 38.07523 | 58.95119 | 7455 ft | 277 kts | 239° |
| 2026-04-13 19:31 | 38.06631 | 58.92959 | 7156 ft | 276 kts | 240° |
| 2026-04-13 19:31 | 38.05756 | 58.90797 | 6869 ft | 275 kts | 240° |
| 2026-04-13 19:31 | 38.04887 | 58.88641 | 6576 ft | 274 kts | 241° |
| 2026-04-13 19:32 | 38.04018 | 58.86485 | 6278 ft | 274 kts | 240° |
| 2026-04-13 19:32 | 38.03149 | 58.84334 | 5974 ft | 274 kts | 240° |
| 2026-04-13 19:32 | 38.02279 | 58.82187 | 5659 ft | 274 kts | 241° |
| 2026-04-13 19:32 | 38.01408 | 58.80040 | 5364 ft | 273 kts | 241° |
| 2026-04-13 19:33 | 38.00541 | 58.77900 | 5069 ft | 273 kts | 241° |
| 2026-04-13 19:33 | 37.99673 | 58.75763 | 4782 ft | 272 kts | 241° |
| 2026-04-13 19:33 | 37.98810 | 58.73639 | 4537 ft | 270 kts | 242° |
| 2026-04-13 19:34 | 37.97133 | 58.69514 | 4290 ft | 257 kts | 242° |
| 2026-04-13 19:34 | 37.96327 | 58.67532 | 4166 ft | 249 kts | 242° |
| 2026-04-13 19:34 | 37.95544 | 58.65610 | 4072 ft | 240 kts | 242° |
| 2026-04-13 19:34 | 37.94790 | 58.63760 | 3845 ft | 233 kts | 242° |
| 2026-04-13 19:35 | 37.94061 | 58.61975 | 3618 ft | 224 kts | 243° |
| 2026-04-13 19:35 | 37.93373 | 58.60243 | 3387 ft | 216 kts | 248° |
| 2026-04-13 19:35 | 37.92937 | 58.58461 | 3149 ft | 208 kts | 256° |
| 2026-04-13 19:35 | 37.92578 | 58.56744 | 2934 ft | 194 kts | 256° |
| 2026-04-13 19:36 | 37.92237 | 58.55137 | 2720 ft | 183 kts | 255° |
| 2026-04-13 19:36 | 37.91929 | 58.53581 | 2567 ft | 183 kts | 263° |
| 2026-04-13 19:36 | 37.92201 | 58.52061 | 2514 ft | 178 kts | 302° |
| 2026-04-13 19:36 | 37.92815 | 58.50688 | 2493 ft | 180 kts | 296° |
| 2026-04-13 19:37 | 37.93384 | 58.49299 | 2494 ft | 180 kts | 298° |
| 2026-04-13 19:37 | 37.93992 | 58.47911 | 2452 ft | 182 kts | 298° |
| 2026-04-13 19:37 | 37.94619 | 58.46492 | 2209 ft | 185 kts | 298° |
| 2026-04-13 19:37 | 37.95233 | 58.45104 | 1950 ft | 177 kts | 298° |
| 2026-04-13 19:38 | 37.95811 | 58.43800 | 1771 ft | 164 kts | 298° |
| 2026-04-13 19:38 | 37.96371 | 58.42533 | 1527 ft | 163 kts | 298° |
| 2026-04-13 19:38 | 37.96918 | 58.41286 | 1296 ft | 161 kts | 297° |
| 2026-04-13 19:38 | 37.97463 | 58.40059 | 1062 ft | 159 kts | 299° |
| 2026-04-13 19:39 | 37.98012 | 58.38846 | 840 ft | 158 kts | 298° |
| 2026-04-13 19:39 | 37.98541 | 58.37649 | 692 ft | 150 kts | 299° |
| 2026-04-13 19:39 | 37.98992 | 58.36637 | 695 ft | 111 kts | 300° |
| 2026-04-13 19:39 | 37.99296 | 58.35952 | 698 ft | 68 kts | 299° |
| 2026-04-13 19:40 | 37.99455 | 58.35588 | 691 ft | 38 kts | 299° |
| 2026-04-13 19:40 | 37.99567 | 58.35300 | 692 ft | 31 kts | 282° |
| 2026-04-13 19:40 | 37.99581 | 58.35092 | 696 ft | 23 kts | 263° |
| 2026-04-13 19:40 | 37.99482 | 58.35014 | 690 ft | 22 kts | 136° |
| 2026-04-13 19:41 | 37.99400 | 58.35175 | 696 ft | 21 kts | 119° |
| 2026-04-13 19:41 | 37.99329 | 58.35338 | 699 ft | 21 kts | 119° |
| 2026-04-13 19:41 | 37.99260 | 58.35495 | 699 ft | 20 kts | 120° |
| 2026-04-13 19:42 | 37.99125 | 58.35795 | 700 ft | 19 kts | 120° |
| 2026-04-13 19:42 | 37.99061 | 58.35938 | 696 ft | 18 kts | 119° |
| 2026-04-13 19:42 | 37.99000 | 58.36078 | 697 ft | 18 kts | 119° |
| 2026-04-13 19:42 | 37.98941 | 58.36213 | 696 ft | 17 kts | 119° |
| 2026-04-13 19:43 | 37.98882 | 58.36342 | 695 ft | 17 kts | 121° |
| 2026-04-13 19:43 | 37.98826 | 58.36467 | 693 ft | 16 kts | 118° |
| 2026-04-13 19:43 | 37.98774 | 58.36588 | 698 ft | 15 kts | 118° |
| 2026-04-13 19:43 | 37.98697 | 58.36652 | 701 ft | 15 kts | 188° |
| 2026-04-13 19:44 | 37.98601 | 58.36619 | 701 ft | 14 kts | 206° |
| 2026-04-13 19:44 | 37.98518 | 58.36557 | 701 ft | 13 kts | 210° |
| 2026-04-13 19:44 | 37.98437 | 58.36502 | 701 ft | 13 kts | 208° |
| 2026-04-13 19:44 | 37.98357 | 58.36456 | 694 ft | 13 kts | 183° |
| 2026-04-13 19:45 | 37.98307 | 58.36531 | 701 ft | 9 kts | 89° |
| 2026-04-13 19:45 | 37.98345 | 58.36589 | 694 ft | 8 kts | 66° |
| 2026-04-13 19:45 | 37.98352 | 58.36612 | 696 ft | 0 kts | 71° |